Time;durP1;ratioP1;P1;durP2;ratioP2;P2;SDS_P1;SDS_P2;PMS_P1;PMS_P2;Temp;Humidity;BMP_temperature;BMP_pressure;BME280_temperature;BME280_humidity;BME280_pressure;Samples;Min_cycle;Max_cycle;Signal;HPM_P1;HPM_P2
2022/08/11 00:01:47;;;;;;;4.10;2.47;;;19.30;97.70;;;;;;4994299;28;20239;-67
2022/08/11 00:04:16;;;;;;;4.13;2.47;;;19.30;98.10;;;;;;4994440;28;20690;-68
2022/08/11 00:06:46;;;;;;;4.77;2.37;;;19.20;98.40;;;;;;4994342;28;20215;-68
2022/08/11 00:09:17;;;;;;;5.77;2.27;;;19.20;99.00;;;;;;4994495;28;20215;-68
2022/08/11 00:11:45;;;;;;;9.73;2.37;;;19.10;99.40;;;;;;4994199;28;20223;-67
2022/08/11 00:14:19;;;;;;;3.77;2.13;;;19.10;99.50;;;;;;4994192;28;20211;-68
2022/08/11 00:16:55;;;;;;;6.83;2.13;;;19.00;99.90;;;;;;4994295;28;20211;-68
2022/08/11 00:19:23;;;;;;;3.67;2.70;;;19.00;99.90;;;;;;4994350;28;20285;-67
2022/08/11 00:21:51;;;;;;;2.37;2.13;;;19.00;99.90;;;;;;4994159;28;20223;-67
2022/08/11 00:24:19;;;;;;;4.27;2.70;;;18.90;99.90;;;;;;4993919;28;20266;-67
2022/08/11 00:26:51;;;;;;;2.77;2.30;;;18.80;99.90;;;;;;4994037;28;20238;-67
2022/08/11 00:29:21;;;;;;;4.83;2.20;;;18.80;99.90;;;;;;4994229;28;20269;-67
2022/08/11 00:31:50;;;;;;;7.87;2.70;;;18.70;99.90;;;;;;4994095;28;20231;-67
2022/08/11 00:34:21;;;;;;;3.10;1.97;;;18.60;99.90;;;;;;4994195;28;20207;-67
2022/08/11 00:36:52;;;;;;;2.87;1.80;;;18.60;99.90;;;;;;4993181;28;20682;-68
2022/08/11 00:39:22;;;;;;;3.17;2.23;;;18.50;99.90;;;;;;4994318;28;20207;-67
2022/08/11 00:42:07;;;;;;;2.93;2.00;;;18.40;99.90;;;;;;4993733;28;20232;-68
2022/08/11 00:44:48;;;;;;;3.50;2.03;;;18.40;99.90;;;;;;4993937;28;20223;-68
2022/08/11 00:47:28;;;;;;;2.57;1.90;;;18.40;99.90;;;;;;4993421;28;20231;-67
2022/08/11 00:50:03;;;;;;;5.13;2.37;;;18.40;99.90;;;;;;4994297;28;20203;-68
2022/08/11 00:52:44;;;;;;;3.20;2.10;;;18.40;99.90;;;;;;4993967;28;20642;-68
2022/08/11 00:55:42;;;;;;;4.20;2.43;;;18.30;99.90;;;;;;4993955;28;20888;-68
2022/08/11 00:59:02;;;;;;;4.80;2.37;;;18.20;99.90;;;;;;4993760;28;20211;-68
2022/08/11 01:01:58;;;;;;;3.23;2.50;;;18.20;99.90;;;;;;4993505;28;20765;-68
2022/08/11 01:05:00;;;;;;;4.80;2.40;;;18.20;99.90;;;;;;4993687;28;20270;-68
2022/08/11 01:07:53;;;;;;;3.73;2.23;;;18.10;99.90;;;;;;4993029;28;20669;-68
2022/08/11 01:10:44;;;;;;;3.83;2.40;;;18.10;99.90;;;;;;4993420;28;20211;-68
2022/08/11 01:13:29;;;;;;;7.13;2.70;;;18.00;99.90;;;;;;4993179;28;20670;-68
2022/08/11 01:16:13;;;;;;;2.60;2.00;;;17.90;99.90;;;;;;4993001;28;20223;-68
2022/08/11 01:19:29;;;;;;;6.30;2.43;;;17.90;99.90;;;;;;4993125;28;20637;-68
2022/08/11 01:22:33;;;;;;;4.83;2.20;;;17.80;99.90;;;;;;4993077;28;20298;-68
2022/08/11 01:25:43;;;;;;;3.73;2.40;;;17.80;99.90;;;;;;4993022;28;20215;-68
2022/08/11 01:28:49;;;;;;;3.50;2.30;;;17.80;99.90;;;;;;4992739;28;20211;-68
2022/08/11 01:31:57;;;;;;;6.13;2.50;;;17.80;99.90;;;;;;4992741;28;20239;-68
2022/08/11 01:35:12;;;;;;;3.37;2.10;;;17.70;99.90;;;;;;4993089;28;20207;-68
2022/08/11 01:38:35;;;;;;;3.13;2.33;;;17.70;99.90;;;;;;4992732;28;20199;-68
2022/08/11 01:44:36;;;;;;;5.63;2.50;;;17.60;99.90;;;;;;4992705;28;20271;-68
2022/08/11 01:44:52;;;;;;;6.37;2.30;;;17.60;99.90;;;;;;4992577;28;20258;-68
2022/08/11 01:50:21;;;;;;;3.47;2.43;;;17.50;99.90;;;;;;4996077;28;20206;-67
2022/08/11 01:53:09;;;;;;;2.87;2.30;;;17.50;99.90;;;;;;5008531;28;20245;-68
2022/08/11 01:55:43;;;;;;;4.77;2.43;;;17.40;99.90;;;;;;5000394;28;20278;-68
2022/08/11 01:58:22;;;;;;;3.30;2.37;;;17.40;99.90;;;;;;4992944;28;20210;-67
2022/08/11 02:00:58;;;;;;;4.93;2.70;;;17.40;99.90;;;;;;4992580;28;20277;-67
2022/08/11 02:03:36;;;;;;;3.37;2.43;;;17.40;99.90;;;;;;4992742;28;20227;-67
2022/08/11 02:06:53;;;;;;;4.30;2.60;;;17.30;99.90;;;;;;4992102;28;20207;-67
2022/08/11 02:09:10;;;;;;;3.87;2.37;;;17.30;99.90;;;;;;4992500;28;20659;-67
2022/08/11 02:11:38;;;;;;;4.40;2.60;;;17.20;99.90;;;;;;4992535;28;20232;-68
2022/08/11 02:14:19;;;;;;;3.97;2.73;;;17.20;99.90;;;;;;4992584;28;20239;-67
2022/08/11 02:16:59;;;;;;;3.33;2.13;;;17.20;99.90;;;;;;4992195;28;20596;-68
2022/08/11 02:25:23;;;;;;;3.50;2.33;;;17.00;99.90;;;;;;4992406;28;20307;-67
2022/08/11 02:27:55;;;;;;;3.43;2.17;;;16.90;99.90;;;;;;4991882;28;20211;-68
2022/08/11 02:30:25;;;;;;;3.13;2.20;;;16.90;99.90;;;;;;4996088;28;20208;-67
2022/08/11 02:35:51;;;;;;;4.27;2.67;;;16.90;99.90;;;;;;4996219;28;20202;-67
2022/08/11 02:38:35;;;;;;;6.43;2.50;;;16.80;99.90;;;;;;4996339;28;20207;-68
2022/08/11 02:44:06;;;;;;;3.53;2.40;;;16.80;99.90;;;;;;4995655;28;20214;-67
2022/08/11 02:46:48;;;;;;;5.97;2.70;;;16.80;99.90;;;;;;4996012;28;20639;-68
2022/08/11 02:52:19;;;;;;;5.23;3.00;;;16.70;99.90;;;;;;4995952;28;20345;-68
2022/08/11 02:55:06;;;;;;;4.67;2.57;;;16.60;99.90;;;;;;4995904;28;20261;-67
2022/08/11 02:57:41;;;;;;;3.50;2.50;;;16.50;99.90;;;;;;4995513;28;20298;-67
2022/08/11 03:00:10;;;;;;;4.27;2.63;;;16.50;99.90;;;;;;4995700;28;20210;-67
2022/08/11 03:03:01;;;;;;;9.10;3.30;;;16.50;99.90;;;;;;4995538;28;20326;-67
2022/08/11 03:05:38;;;;;;;3.07;2.57;;;16.50;99.90;;;;;;4995937;28;20204;-67
2022/08/11 03:08:17;;;;;;;3.50;2.60;;;16.50;99.90;;;;;;4995499;28;20251;-68
2022/08/11 03:16:45;;;;;;;5.17;3.00;;;16.30;99.90;;;;;;4995097;28;20217;-67
2022/08/11 03:19:18;;;;;;;3.17;2.70;;;16.30;99.90;;;;;;4995509;28;20218;-67
2022/08/11 03:22:01;;;;;;;4.33;2.43;;;16.30;99.90;;;;;;4995191;28;20231;-68
2022/08/11 03:24:36;;;;;;;3.67;2.90;;;16.30;99.90;;;;;;4995486;28;20625;-67
2022/08/11 03:27:09;;;;;;;4.83;2.80;;;16.30;99.90;;;;;;4995102;28;20207;-68
2022/08/11 03:29:44;;;;;;;5.37;3.60;;;16.30;99.90;;;;;;4995154;28;20615;-67
2022/08/11 03:32:21;;;;;;;5.67;3.13;;;16.20;99.90;;;;;;4995070;28;20235;-67
2022/08/11 03:34:49;;;;;;;6.90;3.23;;;16.20;99.90;;;;;;4995339;28;20269;-67
2022/08/11 03:43:16;;;;;;;7.27;3.10;;;16.20;99.90;;;;;;4994523;28;20754;-68
2022/08/11 03:46:02;;;;;;;5.30;3.17;;;16.10;99.90;;;;;;4995015;28;20630;-67
2022/08/11 03:48:40;;;;;;;4.50;3.10;;;16.10;99.90;;;;;;4995244;28;20216;-68
2022/08/11 03:51:17;;;;;;;3.97;2.77;;;16.10;99.90;;;;;;4994949;28;20647;-67
2022/08/11 03:53:56;;;;;;;5.37;2.77;;;16.00;99.90;;;;;;4995051;28;20200;-64
2022/08/11 03:56:53;;;;;;;5.07;2.90;;;16.10;99.90;;;;;;4994611;28;20203;-64
2022/08/11 03:59:55;;;;;;;4.87;3.20;;;16.20;99.90;;;;;;4995014;28;20256;-64
2022/08/11 04:02:53;;;;;;;3.23;2.80;;;16.30;99.90;;;;;;4994869;28;20330;-63
2022/08/11 04:05:38;;;;;;;5.93;2.93;;;16.50;99.90;;;;;;4994600;28;20211;-64
2022/08/11 04:08:49;;;;;;;4.57;2.70;;;16.60;99.90;;;;;;4994293;28;20215;-65
2022/08/11 04:11:44;;;;;;;6.63;2.90;;;16.70;99.90;;;;;;4994774;28;20235;-63
2022/08/11 04:17:58;;;;;;;6.80;3.13;;;16.80;99.90;;;;;;4990234;28;20334;-64
2022/08/11 04:20:58;;;;;;;4.97;2.97;;;16.90;99.90;;;;;;4994639;28;20214;-64
2022/08/11 04:23:37;;;;;;;4.47;2.73;;;17.00;99.90;;;;;;4968167;28;20257;-65
2022/08/11 04:26:36;;;;;;;4.73;2.80;;;16.90;99.90;;;;;;4994156;28;20204;-65
2022/08/11 04:29:14;;;;;;;4.57;3.03;;;17.00;99.90;;;;;;4994152;28;20203;-65
2022/08/11 04:32:01;;;;;;;5.03;3.30;;;17.00;99.90;;;;;;4993979;28;20239;-64
2022/08/11 04:34:48;;;;;;;4.70;3.00;;;17.00;99.90;;;;;;4993972;28;20208;-65
2022/08/11 04:37:43;;;;;;;5.13;2.90;;;17.10;99.90;;;;;;4993766;28;20207;-63
2022/08/11 04:40:43;;;;;;;6.67;3.40;;;17.10;99.90;;;;;;4993519;28;20207;-65
2022/08/11 04:43:59;;;;;;;5.03;3.17;;;17.10;99.90;;;;;;4993744;28;20239;-65
2022/08/11 04:46:56;;;;;;;4.57;2.83;;;17.00;99.90;;;;;;4993482;28;20214;-65
2022/08/11 05:03:01;;;;;;;9.17;5.40;;;17.40;99.90;;;;;;4990282;28;20295;-67
2022/08/11 05:05:48;;;;;;;11.07;7.03;;;17.50;99.90;;;;;;4993211;28;20211;-65
2022/08/11 05:08:54;;;;;;;10.83;5.03;;;17.60;99.90;;;;;;4993168;28;20270;-66
2022/08/11 05:11:38;;;;;;;5.30;4.30;;;17.70;99.90;;;;;;4960361;28;20227;-67
2022/08/11 05:37:04;;;;;;;5.47;3.60;;;18.20;99.90;;;;;;4962216;28;20239;-67
2022/08/11 05:56:28;;;;;;;5.27;3.30;;;18.40;99.90;;;;;;4992102;28;20210;-70
2022/08/11 05:58:57;;;;;;;4.93;3.30;;;18.30;99.90;;;;;;4992175;28;20235;-71
2022/08/11 06:01:25;;;;;;;7.83;3.70;;;18.30;99.90;;;;;;4992013;28;20718;-72
2022/08/11 06:06:40;;;;;;;4.70;3.10;;;18.50;99.90;;;;;;4991956;28;20309;-70
2022/08/11 06:09:13;;;;;;;4.17;3.20;;;18.50;99.90;;;;;;4992260;28;20222;-72
2022/08/11 06:11:43;;;;;;;4.77;3.20;;;18.60;99.90;;;;;;4991919;28;20228;-72
2022/08/11 06:14:11;;;;;;;7.23;3.90;;;18.80;99.90;;;;;;4991987;28;20227;-72
2022/08/11 06:16:39;;;;;;;6.37;3.63;;;18.90;99.90;;;;;;4991490;28;20302;-71
2022/08/11 06:19:07;;;;;;;5.33;3.30;;;18.90;99.90;;;;;;4992138;28;20437;-71
2022/08/11 06:21:35;;;;;;;7.47;4.00;;;18.90;99.90;;;;;;4991786;28;20227;-71
2022/08/11 06:24:06;;;;;;;7.60;3.33;;;19.00;99.90;;;;;;4991960;28;20350;-68
2022/08/11 06:26:33;;;;;;;10.17;3.60;;;19.10;99.90;;;;;;4991620;28;20215;-67
2022/08/11 06:29:02;;;;;;;8.37;3.57;;;19.20;99.90;;;;;;4991520;28;20630;-67
2022/08/11 06:31:30;;;;;;;5.03;3.33;;;19.40;99.90;;;;;;4991866;28;20333;-67
2022/08/11 06:34:13;;;;;;;6.90;3.80;;;19.50;99.90;;;;;;4991769;28;20208;-67
2022/08/11 06:36:47;;;;;;;4.13;3.73;;;19.60;99.90;;;;;;4991579;28;20259;-64
2022/08/11 06:39:26;;;;;;;5.07;3.17;;;19.80;99.90;;;;;;4987225;28;20291;-64
2022/08/11 06:41:59;;;;;;;5.30;3.27;;;19.90;99.90;;;;;;4972425;28;20295;-63
2022/08/11 06:44:33;;;;;;;5.10;3.23;;;19.90;99.90;;;;;;4972171;28;20224;-63
2022/08/11 06:47:08;;;;;;;6.90;3.57;;;20.00;99.90;;;;;;4972063;28;20258;-64
2022/08/11 06:52:31;;;;;;;6.40;3.60;;;20.10;99.90;;;;;;4972266;28;20300;-63
2022/08/11 06:55:05;;;;;;;7.40;3.27;;;20.20;99.90;;;;;;4972414;28;20734;-63
2022/08/11 07:00:29;;;;;;;4.47;3.13;;;20.40;99.90;;;;;;4972245;28;20283;-65
2022/08/11 07:03:00;;;;;;;7.23;3.50;;;20.50;99.90;;;;;;4972747;28;20238;-67
2022/08/11 07:05:37;;;;;;;12.77;4.20;;;20.70;99.90;;;;;;4972872;28;20267;-67
2022/08/11 07:28:54;;;;;;;7.77;3.87;;;21.00;99.90;;;;;;4951404;28;20681;-68
2022/08/11 07:28:57;;;;;;;6.23;3.73;;;21.60;99.90;;;;;;4975240;28;20746;-64
2022/08/11 07:31:30;;;;;;;12.93;4.13;;;21.70;99.90;;;;;;4975435;28;20314;-65
2022/08/11 07:34:11;;;;;;;6.07;3.20;;;21.80;99.90;;;;;;4975202;28;20208;-66
2022/08/11 07:36:40;;;;;;;4.33;3.23;;;22.00;99.90;;;;;;4975054;28;20267;-66
2022/08/11 07:39:16;;;;;;;8.57;3.90;;;22.20;99.90;;;;;;4975183;28;20311;-66
2022/08/11 07:41:43;;;;;;;7.23;3.60;;;22.40;99.90;;;;;;4975362;28;20223;-65
2022/08/11 07:44:11;;;;;;;6.43;3.20;;;22.50;99.90;;;;;;4974851;28;20224;-70
2022/08/11 07:52:32;;;;;;;6.27;3.50;;;23.10;99.90;;;;;;4974912;28;20227;-70
2022/08/11 07:55:01;;;;;;;4.97;3.50;;;23.20;99.90;;;;;;4975016;28;20698;-69
2022/08/11 08:19:36;;;;;;;4.63;3.30;;;25.00;99.90;;;;;;4975074;28;20221;-66
2022/08/11 08:22:04;;;;;;;4.47;3.23;;;25.10;99.90;;;;;;4975082;28;20318;-66
2022/08/11 08:24:32;;;;;;;5.03;2.97;;;25.20;99.90;;;;;;4974891;28;20232;-66
2022/08/11 08:26:59;;;;;;;6.20;3.50;;;25.40;99.90;;;;;;4973457;28;20212;-66
2022/08/11 08:32:15;;;;;;;4.73;2.80;;;25.50;99.90;;;;;;4974778;28;20748;-66
2022/08/11 08:34:43;;;;;;;7.07;3.60;;;25.60;99.90;;;;;;4974906;28;20204;-66
2022/08/11 08:37:11;;;;;;;5.80;3.10;;;25.70;99.90;;;;;;4974653;28;20208;-67
2022/08/11 08:39:38;;;;;;;9.77;3.50;;;25.90;99.90;;;;;;4974644;28;20213;-66
2022/08/11 08:42:11;;;;;;;5.80;3.03;;;26.10;99.90;;;;;;4974651;28;20298;-66
2022/08/11 08:44:42;;;;;;;6.37;3.80;;;26.20;99.90;;;;;;4974466;28;20319;-66
2022/08/11 08:47:13;;;;;;;4.70;2.73;;;26.30;99.90;;;;;;4974774;28;20263;-65
2022/08/11 08:49:50;;;;;;;4.07;3.20;;;26.40;99.90;;;;;;4974476;28;20212;-66
2022/08/11 08:52:21;;;;;;;5.07;3.20;;;26.30;99.90;;;;;;4975643;28;20230;-66
2022/08/11 08:54:52;;;;;;;6.50;3.07;;;26.20;99.90;;;;;;4985964;28;20269;-66
2022/08/11 08:57:22;;;;;;;6.53;3.33;;;26.30;99.90;;;;;;4984836;28;20212;-65
2022/08/11 08:59:51;;;;;;;5.97;3.27;;;26.40;99.90;;;;;;4975224;28;20733;-66
2022/08/11 09:02:20;;;;;;;18.70;4.47;;;26.50;99.90;;;;;;4974171;28;20236;-66
2022/08/11 09:04:47;;;;;;;6.83;3.00;;;26.60;99.90;;;;;;4974116;28;20236;-65
2022/08/11 09:07:17;;;;;;;5.77;2.83;;;26.80;99.90;;;;;;4973743;28;20213;-66
2022/08/11 09:09:48;;;;;;;4.03;3.13;;;27.00;99.90;;;;;;4974297;28;20235;-66
2022/08/11 09:12:18;;;;;;;6.20;2.90;;;27.10;99.90;;;;;;4973871;28;20715;-66
2022/08/11 09:15:02;;;;;;;5.67;2.60;;;27.30;99.90;;;;;;4973543;28;20208;-66
2022/08/11 09:17:31;;;;;;;9.80;2.90;;;27.40;99.90;;;;;;4973649;28;20219;-66
2022/08/11 09:20:00;;;;;;;6.63;3.03;;;27.30;99.90;;;;;;4973791;28;20216;-66
2022/08/11 09:28:11;;;;;;;6.07;3.20;;;27.50;99.90;;;;;;4949421;28;20705;-66
2022/08/11 09:30:41;;;;;;;6.13;2.83;;;27.40;99.90;;;;;;4976163;28;20207;-66
2022/08/11 09:33:11;;;;;;;3.87;3.07;;;27.40;99.90;;;;;;4971449;28;20286;-66
2022/08/11 09:35:41;;;;;;;7.73;2.80;;;27.50;99.90;;;;;;4972281;28;20570;-66
2022/08/11 09:40:58;;;;;;;4.20;2.50;;;27.70;99.90;;;;;;4992280;28;20206;-68
2022/08/11 09:46:11;;;;;;;8.00;3.00;;;27.80;99.90;;;;;;4952804;29;20223;-66
2022/08/11 09:48:41;;;;;;;8.47;2.90;;;27.90;99.90;;;;;;4953231;29;20205;-66
2022/08/11 09:51:09;;;;;;;6.43;2.63;;;28.10;99.90;;;;;;4988209;28;20282;-66
2022/08/11 09:53:39;;;;;;;3.37;2.90;;;28.20;99.90;;;;;;4991938;28;20210;-66
2022/08/11 09:58:55;;;;;;;5.17;2.60;;;27.90;99.90;;;;;;4971979;28;20223;-65
2022/08/11 10:01:31;;;;;;;3.00;2.47;;;28.10;99.90;;;;;;4969414;28;20228;-64
2022/08/11 10:04:00;;;;;;;6.00;2.47;;;28.00;99.90;;;;;;4969774;28;20263;-65
2022/08/11 10:09:19;;;;;;;7.80;3.03;;;27.80;99.90;;;;;;4971148;28;20203;-66
2022/08/11 10:11:47;;;;;;;3.47;2.80;;;27.80;99.90;;;;;;4970856;28;20319;-69
2022/08/11 10:17:05;;;;;;;2.77;2.57;;;28.10;99.90;;;;;;4969332;28;20199;-69
2022/08/11 10:19:36;;;;;;;4.23;2.60;;;28.00;99.90;;;;;;4971111;28;20212;-68
2022/08/11 10:27:35;;;;;;;5.57;3.10;;;27.80;99.90;;;;;;4970552;28;20813;-71
2022/08/11 10:35:34;;;;;;;4.50;2.97;;;28.30;99.90;;;;;;4970389;28;20207;-67
2022/08/11 10:38:03;;;;;;;9.30;2.90;;;28.50;99.90;;;;;;4969794;28;20639;-68
2022/08/11 10:40:31;;;;;;;6.40;3.27;;;28.60;99.90;;;;;;4969792;28;20197;-69
2022/08/11 10:43:05;;;;;;;3.27;2.50;;;28.80;99.90;;;;;;4970163;28;20708;-65
2022/08/11 10:48:22;;;;;;;4.80;2.70;;;28.60;99.90;;;;;;4971747;28;20251;-66
2022/08/11 10:59:08;;;;;;;7.03;2.87;;;28.80;99.90;;;;;;4976126;28;20727;-67
2022/08/11 11:01:38;;;;;;;4.73;2.20;;;28.80;99.90;;;;;;4975850;28;20758;-66
2022/08/11 11:04:09;;;;;;;9.07;2.93;;;28.80;99.90;;;;;;4975525;28;20282;-67
2022/08/11 11:06:43;;;;;;;5.10;2.90;;;28.80;99.90;;;;;;4975503;28;20244;-64
2022/08/11 11:09:15;;;;;;;3.50;2.80;;;28.90;99.90;;;;;;4975910;28;20599;-63
2022/08/11 11:20:13;;;;;;;3.83;3.00;;;29.10;99.90;;;;;;4975687;28;20203;-64
2022/08/11 11:22:46;;;;;;;8.53;2.70;;;29.20;99.90;;;;;;4974957;28;20228;-64
2022/08/11 11:25:34;;;;;;;8.37;3.10;;;29.30;99.90;;;;;;4975601;28;20685;-65
2022/08/11 11:28:18;;;;;;;3.87;2.60;;;29.20;99.90;;;;;;4975101;28;20212;-64
2022/08/11 11:30:57;;;;;;;4.57;3.20;;;29.20;99.90;;;;;;4975279;28;20263;-65
2022/08/11 11:33:37;;;;;;;11.73;3.57;;;29.20;99.90;;;;;;4974661;28;20212;-64
2022/08/11 11:36:15;;;;;;;8.13;5.37;;;29.20;99.90;;;;;;4975176;28;20266;-64
2022/08/11 11:38:43;;;;;;;4.43;2.90;;;29.30;99.90;;;;;;4975052;28;20235;-64
2022/08/11 11:41:24;;;;;;;3.50;2.70;;;29.40;99.90;;;;;;4975068;28;20228;-64
2022/08/11 11:43:52;;;;;;;4.87;2.57;;;29.40;99.90;;;;;;4974183;28;20298;-64
2022/08/11 11:46:20;;;;;;;5.00;2.87;;;29.40;99.90;;;;;;4974588;28;20259;-64
2022/08/11 11:48:47;;;;;;;4.93;2.83;;;29.50;99.90;;;;;;4975323;28;20774;-65
2022/08/11 11:51:14;;;;;;;4.93;2.90;;;29.50;99.90;;;;;;4973401;28;20228;-64
2022/08/11 11:53:43;;;;;;;5.53;3.00;;;29.60;99.90;;;;;;4974718;28;20209;-64
2022/08/11 11:56:12;;;;;;;4.67;2.70;;;29.40;99.90;;;;;;4974502;28;20212;-64
2022/08/11 12:01:26;;;;;;;3.90;2.90;;;29.40;99.90;;;;;;4974584;28;20607;-64
2022/08/11 12:03:55;;;;;;;6.57;2.90;;;29.50;99.90;;;;;;4974381;28;20642;-64
2022/08/11 12:06:26;;;;;;;5.40;3.00;;;29.60;99.90;;;;;;4973115;28;20209;-64
2022/08/11 12:08:58;;;;;;;5.50;2.80;;;29.30;99.90;;;;;;4968942;28;20643;-65
2022/08/11 12:14:18;;;;;;;4.73;2.83;;;29.50;99.90;;;;;;4974396;28;20323;-64
2022/08/11 12:16:47;;;;;;;4.73;2.57;;;29.50;99.90;;;;;;4974253;28;20675;-64
2022/08/11 12:19:16;;;;;;;4.83;2.83;;;29.50;99.90;;;;;;4974588;28;20270;-63
2022/08/11 12:27:21;;;;;;;4.43;2.50;;;29.40;99.90;;;;;;4974138;28;20223;-63
2022/08/11 12:29:49;;;;;;;5.77;2.57;;;29.50;99.90;;;;;;4979643;28;20208;-64
2022/08/11 12:32:19;;;;;;;7.60;3.00;;;29.40;99.90;;;;;;4984432;28;20290;-63
2022/08/11 12:34:46;;;;;;;8.70;2.97;;;29.50;99.90;;;;;;4978944;28;20643;-64
2022/08/11 12:37:14;;;;;;;3.70;2.77;;;29.70;99.90;;;;;;4974049;28;20586;-64
2022/08/11 12:45:30;;;;;;;7.03;3.00;;;29.60;99.90;;;;;;4973474;28;20239;-64
2022/08/11 12:53:55;;;;;;;4.30;2.60;;;29.90;99.90;;;;;;4973836;28;20342;-63
2022/08/11 13:04:55;;;;;;;4.93;2.67;;;29.90;99.90;;;;;;4973645;28;20611;-64
2022/08/11 13:07:22;;;;;;;5.83;3.10;;;29.90;99.90;;;;;;4972018;28;20231;-64
2022/08/11 13:09:51;;;;;;;3.37;2.90;;;30.00;99.90;;;;;;4964069;28;20239;-64
2022/08/11 13:15:19;;;;;;;3.50;2.63;;;30.00;99.90;;;;;;4932185;29;20348;-64
2022/08/11 13:17:48;;;;;;;6.67;3.00;;;29.80;99.90;;;;;;4932311;29;20218;-66
2022/08/11 13:20:18;;;;;;;4.67;2.90;;;29.80;99.90;;;;;;4950830;28;20302;-65
2022/08/11 13:22:48;;;;;;;7.60;2.93;;;29.70;99.90;;;;;;4973089;28;20674;-65
2022/08/11 13:25:16;;;;;;;4.93;2.60;;;29.90;99.90;;;;;;4972916;28;20271;-65
2022/08/11 13:27:45;;;;;;;4.97;3.23;;;30.10;99.90;;;;;;4972628;28;20212;-66
2022/08/11 13:32:58;;;;;;;6.45;4.10;;;30.20;99.90;;;;;;4972965;28;20234;-65
2022/08/11 13:35:28;;;;;;;4.63;2.90;;;30.50;99.90;;;;;;4972797;28;20204;-66
2022/08/11 13:37:55;;;;;;;3.10;2.65;;;30.40;99.90;;;;;;4972677;28;20212;-66
2022/08/11 13:40:23;;;;;;;5.03;2.60;;;30.10;99.90;;;;;;4972821;28;20204;-68
2022/08/11 13:42:52;;;;;;;4.47;2.67;;;30.10;99.90;;;;;;4972642;28;20715;-68
2022/08/11 13:45:22;;;;;;;5.23;2.87;;;30.40;99.90;;;;;;4972764;28;20235;-65
2022/08/11 13:47:49;;;;;;;5.82;2.60;;;30.50;99.90;;;;;;4972720;28;20204;-65
2022/08/11 13:50:17;;;;;;;4.03;2.90;;;30.50;99.90;;;;;;4973039;28;20770;-66
2022/08/11 13:52:47;;;;;;;3.13;2.83;;;30.50;99.90;;;;;;4972383;28;20319;-65
2022/08/11 13:55:20;;;;;;;5.07;2.83;;;30.60;99.90;;;;;;4973011;28;20204;-65
2022/08/11 13:57:50;;;;;;;2.80;2.50;;;30.40;99.90;;;;;;4973315;28;20211;-68
2022/08/11 14:00:17;;;;;;;4.87;2.93;;;30.30;99.90;;;;;;4980219;28;20574;-68
2022/08/11 14:02:48;;;;;;;3.10;2.70;;;30.30;99.90;;;;;;4972663;28;20228;-66
2022/08/11 14:05:18;;;;;;;4.67;2.80;;;30.30;99.90;;;;;;4972236;28;20721;-66
2022/08/11 14:07:50;;;;;;;8.65;4.32;;;30.30;99.90;;;;;;4972680;28;20211;-66
2022/08/11 14:10:19;;;;;;;9.67;3.30;;;30.30;99.90;;;;;;4972763;28;20210;-65
2022/08/11 14:15:42;;;;;;;4.47;3.08;;;30.50;99.90;;;;;;4972357;28;20747;-65
2022/08/11 14:18:13;;;;;;;3.40;2.80;;;30.60;99.90;;;;;;4972495;28;20208;-65
2022/08/11 14:23:32;;;;;;;3.57;3.03;;;30.40;99.90;;;;;;4973178;28;20226;-65
2022/08/11 14:28:45;;;;;;;4.20;2.97;;;30.40;99.90;;;;;;4976796;28;20207;-65
2022/08/11 14:31:13;;;;;;;4.23;3.30;;;30.30;99.90;;;;;;4977222;28;20244;-69
2022/08/11 14:33:41;;;;;;;5.38;3.42;;;30.30;99.90;;;;;;4977488;28;20211;-71
2022/08/11 14:36:10;;;;;;;4.60;3.85;;;30.40;99.90;;;;;;4976274;28;20229;-66
2022/08/11 14:38:40;;;;;;;5.90;3.65;;;30.30;99.90;;;;;;4976330;28;20208;-71
2022/08/11 14:49:23;;;;;;;3.65;2.83;;;30.10;99.90;;;;;;4968994;28;20207;-65
2022/08/11 14:51:52;;;;;;;5.40;2.45;;;30.00;99.90;;;;;;4976031;28;20634;-66
2022/08/11 14:57:07;;;;;;;7.90;3.20;;;30.20;99.90;;;;;;4975985;28;20282;-67
2022/08/11 14:59:34;;;;;;;4.93;2.70;;;30.30;99.90;;;;;;4975799;28;20212;-67
2022/08/11 15:04:46;;;;;;;6.50;3.07;;;30.40;99.90;;;;;;4976307;28;20231;-66
2022/08/11 15:07:13;;;;;;;3.93;2.70;;;30.50;99.90;;;;;;4975782;28;20262;-69
2022/08/11 15:09:42;;;;;;;5.97;2.60;;;30.40;99.90;;;;;;4975769;28;20204;-65
2022/08/11 15:12:15;;;;;;;4.07;2.80;;;30.40;99.90;;;;;;4975510;28;20671;-65
2022/08/11 15:17:29;;;;;;;3.03;2.50;;;30.40;99.90;;;;;;4975575;28;20623;-65
2022/08/11 15:25:23;;;;;;;6.30;2.63;;;30.10;99.90;;;;;;4975407;28;20227;-65
2022/08/11 15:39:00;;;;;;;4.27;2.87;;;30.10;99.90;;;;;;4974325;28;20211;-64
2022/08/11 15:47:22;;;;;;;5.03;3.05;;;30.70;99.90;;;;;;4972720;28;20247;-64
2022/08/11 15:49:53;;;;;;;9.63;2.97;;;30.70;99.90;;;;;;4973573;28;20216;-65
2022/08/11 15:52:26;;;;;;;5.07;2.83;;;30.70;99.90;;;;;;4973025;28;20228;-65
2022/08/11 15:54:54;;;;;;;4.15;3.00;;;30.50;99.90;;;;;;4972768;28;20309;-64
2022/08/11 16:05:50;;;;;;;5.43;2.75;;;30.40;99.90;;;;;;4974419;28;20252;-66
2022/08/11 16:08:22;;;;;;;3.67;2.70;;;30.40;99.90;;;;;;4974626;28;20212;-71
2022/08/11 16:10:50;;;;;;;7.80;3.47;;;30.40;99.90;;;;;;4976520;28;20212;-68
2022/08/11 16:16:17;;;;;;;3.40;2.83;;;30.60;99.90;;;;;;4982353;28;20194;-65
2022/08/11 16:18:48;;;;;;;3.15;2.83;;;30.50;99.90;;;;;;4975536;28;20255;-71
2022/08/11 16:21:20;;;;;;;5.50;2.80;;;30.50;99.90;;;;;;4974781;28;20228;-66
2022/08/11 16:23:49;;;;;;;4.90;3.08;;;30.30;99.90;;;;;;4974421;28;20717;-66
2022/08/11 16:26:21;;;;;;;4.83;3.13;;;30.00;99.90;;;;;;4973698;28;20287;-66
2022/08/11 16:28:51;;;;;;;3.20;2.80;;;29.90;99.90;;;;;;4974394;28;20223;-65
2022/08/11 16:31:20;;;;;;;7.73;3.03;;;29.90;99.90;;;;;;4974165;28;20240;-67
2022/08/11 16:33:48;;;;;;;4.73;3.40;;;29.80;99.90;;;;;;4974539;28;20216;-68
2022/08/11 16:39:02;;;;;;;5.03;3.03;;;29.90;99.90;;;;;;4974056;28;20243;-66
2022/08/11 16:47:05;;;;;;;4.40;3.10;;;29.80;99.90;;;;;;4973164;28;20287;-66
2022/08/11 16:49:34;;;;;;;5.10;3.20;;;29.70;99.90;;;;;;4974378;28;20269;-66
2022/08/11 16:52:04;;;;;;;4.60;3.33;;;29.40;98.90;;;;;;4974042;28;20228;-66
2022/08/11 16:54:32;;;;;;;5.17;3.57;;;29.30;97.70;;;;;;4974491;28;20307;-66
2022/08/11 16:59:12;;;;;;;4.77;3.13;;;29.20;97.10;;;;;;4974073;28;20352;-66
2022/08/11 16:59:53;;;;;;;9.43;2.97;;;29.10;96.20;;;;;;4974491;28;20216;-66
2022/08/11 17:13:36;;;;;;;4.83;2.90;;;28.70;92.60;;;;;;4974471;28;20254;-66
2022/08/11 17:16:07;;;;;;;5.60;3.10;;;28.70;94.20;;;;;;4973760;28;20255;-66
2022/08/11 17:18:41;;;;;;;3.23;2.93;;;28.60;94.60;;;;;;4974364;28;20204;-65
2022/08/11 17:21:12;;;;;;;4.70;3.40;;;28.50;92.30;;;;;;4973921;28;20578;-66
2022/08/11 17:23:48;;;;;;;5.27;3.30;;;28.50;92.00;;;;;;4974324;28;20212;-66
2022/08/11 17:26:18;;;;;;;3.57;3.10;;;28.60;92.60;;;;;;4973732;28;20235;-66
2022/08/11 17:28:48;;;;;;;5.37;3.33;;;28.50;92.50;;;;;;4974240;28;20230;-66
2022/08/11 17:36:50;;;;;;;5.37;3.67;;;28.40;93.10;;;;;;4973878;28;20196;-66
2022/08/11 17:39:17;;;;;;;5.77;3.40;;;28.30;92.70;;;;;;4973793;28;20216;-66
2022/08/11 17:50:05;;;;;;;9.13;4.87;;;28.10;91.60;;;;;;4974589;28;20286;-66
2022/08/11 18:00:49;;;;;;;5.00;2.90;;;28.00;91.50;;;;;;4973494;28;20243;-66
2022/08/11 18:03:32;;;;;;;5.50;3.30;;;27.90;91.50;;;;;;4973765;28;20255;-66
2022/08/11 18:06:02;;;;;;;7.53;4.40;;;27.90;92.10;;;;;;4973474;28;20267;-66
